Time;durP1;ratioP1;P1;durP2;ratioP2;P2;SDS_P1;SDS_P2;PMS_P1;PMS_P2;Temp;Humidity;BMP_temperature;BMP_pressure;BME280_temperature;BME280_humidity;BME280_pressure;Samples;Min_cycle;Max_cycle;Signal;HPM_P1;HPM_P2
2024/02/29 00:02:24;;;;;;;60.83;23.93;;;4.80;85.30;;;;;;5019700;28;20208;-73
2024/02/29 00:04:49;;;;;;;61.87;24.33;;;4.90;85.20;;;;;;5035267;28;20259;-73
2024/02/29 00:07:15;;;;;;;61.43;25.30;;;4.90;85.00;;;;;;5019691;28;20200;-75
2024/02/29 00:09:40;;;;;;;56.90;24.90;;;4.80;85.00;;;;;;5016576;28;20292;-72
2024/02/29 00:12:06;;;;;;;58.17;23.57;;;4.80;84.90;;;;;;5029191;28;20694;-72
2024/02/29 00:14:32;;;;;;;63.87;25.53;;;4.70;85.00;;;;;;5034292;28;20201;-73
2024/02/29 00:17:00;;;;;;;67.13;24.57;;;4.60;85.20;;;;;;5040643;28;20177;-73
2024/02/29 00:19:27;;;;;;;63.30;24.13;;;4.50;85.20;;;;;;5020790;28;20432;-72
2024/02/29 00:21:52;;;;;;;73.00;26.67;;;4.50;85.50;;;;;;5028136;28;20803;-73
2024/02/29 00:24:18;;;;;;;60.57;24.67;;;4.50;85.60;;;;;;5032872;28;20439;-74
2024/02/29 00:26:43;;;;;;;71.07;29.00;;;4.40;85.60;;;;;;5035547;28;20196;-75
2024/02/29 00:29:09;;;;;;;60.20;25.90;;;4.30;85.70;;;;;;5037930;28;20230;-73
2024/02/29 00:31:35;;;;;;;80.77;29.47;;;4.20;85.90;;;;;;5027863;28;20209;-74
2024/02/29 00:34:01;;;;;;;65.67;26.93;;;4.10;86.20;;;;;;5026264;28;20189;-73
2024/02/29 00:36:27;;;;;;;74.70;28.30;;;4.10;86.30;;;;;;5030088;28;20534;-74
2024/02/29 00:38:52;;;;;;;72.27;28.10;;;4.20;86.60;;;;;;5042828;28;20426;-72
2024/02/29 00:41:19;;;;;;;61.70;24.03;;;4.20;86.60;;;;;;5034968;28;20205;-72
2024/02/29 00:43:44;;;;;;;74.10;27.60;;;4.20;86.60;;;;;;5026737;28;20686;-73
2024/02/29 00:46:10;;;;;;;69.10;28.00;;;4.20;86.60;;;;;;5033241;28;20443;-74
2024/02/29 00:48:36;;;;;;;70.00;27.93;;;4.10;86.30;;;;;;5029160;28;20197;-74
2024/02/29 00:51:03;;;;;;;77.20;28.50;;;4.00;86.30;;;;;;5030521;28;20805;-75
2024/02/29 00:53:28;;;;;;;71.17;30.57;;;4.00;86.60;;;;;;5028286;28;20459;-73
2024/02/29 00:55:54;;;;;;;81.03;32.17;;;3.90;86.80;;;;;;5032063;28;20452;-72
2024/02/29 00:58:20;;;;;;;64.30;27.77;;;3.90;86.90;;;;;;5033441;28;20220;-71
2024/02/29 01:00:45;;;;;;;70.97;29.93;;;3.80;87.00;;;;;;5010180;28;20329;-72
2024/02/29 01:03:11;;;;;;;72.57;27.67;;;3.80;87.10;;;;;;5023727;28;20729;-74
2024/02/29 01:05:38;;;;;;;69.87;28.87;;;3.80;87.30;;;;;;5032623;28;20227;-75
2024/02/29 01:08:04;;;;;;;74.57;30.80;;;3.80;87.30;;;;;;5034639;28;20219;-74
2024/02/29 01:10:30;;;;;;;71.87;29.50;;;3.80;87.30;;;;;;5030460;28;20464;-74
2024/02/29 01:12:56;;;;;;;73.63;29.13;;;3.80;87.40;;;;;;5028067;28;20442;-72
2024/02/29 01:15:22;;;;;;;81.43;30.37;;;3.70;87.40;;;;;;5039440;28;20243;-71
2024/02/29 01:17:50;;;;;;;76.30;30.50;;;3.70;87.40;;;;;;5025255;28;20462;-74
2024/02/29 01:20:15;;;;;;;70.50;27.57;;;3.70;87.70;;;;;;5041045;28;20193;-75
2024/02/29 01:22:41;;;;;;;74.90;27.70;;;3.70;87.60;;;;;;5006611;28;20467;-73
2024/02/29 01:25:07;;;;;;;57.87;25.73;;;3.70;87.60;;;;;;5039598;28;20188;-74
2024/02/29 01:27:33;;;;;;;72.57;27.77;;;3.70;87.60;;;;;;5032754;28;20177;-74
2024/02/29 01:29:59;;;;;;;78.97;29.07;;;3.80;87.60;;;;;;5032232;28;20475;-73
2024/02/29 01:32:24;;;;;;;68.10;27.00;;;3.70;87.40;;;;;;5020691;28;20479;-72
2024/02/29 01:34:50;;;;;;;72.97;29.50;;;3.80;87.60;;;;;;5032254;28;20255;-73
2024/02/29 01:37:16;;;;;;;69.10;27.93;;;3.80;87.40;;;;;;5034666;28;20189;-74
2024/02/29 01:39:41;;;;;;;70.87;28.03;;;3.60;87.10;;;;;;5035923;28;20189;-73
2024/02/29 01:42:07;;;;;;;68.70;27.80;;;3.50;87.10;;;;;;5027224;28;20632;-73
2024/02/29 01:44:36;;;;;;;66.17;27.27;;;3.60;87.10;;;;;;5038222;28;20212;-75
2024/02/29 01:47:01;;;;;;;72.53;28.43;;;3.60;87.40;;;;;;5042623;28;20429;-74
2024/02/29 01:49:27;;;;;;;70.83;29.30;;;3.60;87.40;;;;;;5045374;28;20478;-72
2024/02/29 01:51:54;;;;;;;74.73;27.03;;;3.60;87.40;;;;;;5034982;28;20224;-73
2024/02/29 01:54:20;;;;;;;73.47;28.67;;;3.60;87.40;;;;;;5029670;28;20439;-73
2024/02/29 01:56:46;;;;;;;78.43;32.07;;;3.70;87.40;;;;;;5019591;28;20432;-74
2024/02/29 01:59:13;;;;;;;72.00;27.87;;;3.70;87.40;;;;;;5038136;28;20427;-74
2024/02/29 02:01:39;;;;;;;83.90;33.57;;;3.50;87.30;;;;;;5030668;28;20471;-73
2024/02/29 02:04:05;;;;;;;84.50;33.77;;;3.50;87.40;;;;;;5021527;28;20440;-73
2024/02/29 02:06:30;;;;;;;69.43;27.67;;;3.50;87.60;;;;;;5034922;28;20276;-73
2024/02/29 02:08:56;;;;;;;76.13;29.47;;;3.50;87.60;;;;;;5033909;28;20209;-73
2024/02/29 02:11:22;;;;;;;78.43;32.20;;;3.60;87.40;;;;;;5024604;28;20209;-72
2024/02/29 02:13:47;;;;;;;74.57;29.37;;;3.50;87.40;;;;;;5032899;28;20432;-73
2024/02/29 02:16:13;;;;;;;89.20;33.80;;;3.50;87.40;;;;;;5032563;28;20189;-73
2024/02/29 02:18:39;;;;;;;78.43;30.30;;;3.40;87.40;;;;;;5031925;28;20239;-73
2024/02/29 02:21:05;;;;;;;81.23;31.10;;;3.40;87.60;;;;;;5023340;28;20551;-73
2024/02/29 02:23:30;;;;;;;78.57;30.80;;;3.40;87.60;;;;;;5021126;28;20178;-74
2024/02/29 02:25:59;;;;;;;74.90;31.70;;;3.30;87.60;;;;;;5032582;28;20177;-73
2024/02/29 02:28:25;;;;;;;76.83;30.13;;;3.30;87.70;;;;;;5036615;28;20209;-73
2024/02/29 02:30:51;;;;;;;80.33;33.20;;;3.20;87.70;;;;;;5037391;28;20493;-70
2024/02/29 02:33:17;;;;;;;77.13;30.50;;;3.30;87.80;;;;;;5036309;28;20428;-71
2024/02/29 02:35:42;;;;;;;91.73;32.33;;;3.30;87.80;;;;;;5043290;28;20689;-73
2024/02/29 02:38:08;;;;;;;78.00;29.03;;;3.30;88.00;;;;;;5044211;28;20221;-73
2024/02/29 02:40:35;;;;;;;69.47;29.03;;;3.20;88.00;;;;;;5041485;28;20205;-71
2024/02/29 02:43:01;;;;;;;70.40;29.10;;;3.30;88.10;;;;;;5040454;28;20201;-73
2024/02/29 02:45:26;;;;;;;70.30;29.20;;;3.30;88.10;;;;;;5042104;28;20451;-72
2024/02/29 02:47:53;;;;;;;66.80;28.00;;;3.30;88.10;;;;;;5023680;28;20420;-72
2024/02/29 02:50:19;;;;;;;81.10;30.60;;;3.40;88.10;;;;;;5041150;28;20247;-71
2024/02/29 02:52:44;;;;;;;70.27;27.57;;;3.30;88.00;;;;;;5037775;28;21003;-74
2024/02/29 02:55:10;;;;;;;79.60;29.23;;;3.30;87.80;;;;;;5040939;28;20658;-72
2024/02/29 02:57:35;;;;;;;80.13;32.23;;;3.30;87.80;;;;;;5042717;28;20189;-72
2024/02/29 03:00:01;;;;;;;69.93;30.13;;;3.20;87.80;;;;;;5043222;28;20741;-72
2024/02/29 03:02:26;;;;;;;86.20;31.93;;;3.10;88.00;;;;;;5037855;28;20216;-73
2024/02/29 03:04:52;;;;;;;67.47;28.53;;;3.10;88.00;;;;;;5043122;28;20232;-72
2024/02/29 03:07:19;;;;;;;77.80;30.83;;;3.10;88.10;;;;;;5043555;28;20193;-72
2024/02/29 03:09:45;;;;;;;69.47;26.83;;;3.20;88.30;;;;;;5044334;28;20308;-72
2024/02/29 03:12:11;;;;;;;80.93;31.10;;;3.30;88.10;;;;;;5036048;28;20546;-70
2024/02/29 03:14:37;;;;;;;70.07;28.10;;;3.20;88.00;;;;;;5040935;28;20432;-74
2024/02/29 03:17:03;;;;;;;85.23;30.33;;;3.10;88.00;;;;;;5042833;28;20181;-70
2024/02/29 03:19:29;;;;;;;72.77;29.33;;;3.10;88.10;;;;;;5041731;28;20181;-73
2024/02/29 03:21:54;;;;;;;68.97;29.20;;;3.10;88.00;;;;;;5031709;28;20473;-71
2024/02/29 03:24:21;;;;;;;87.43;32.57;;;3.10;88.10;;;;;;5042208;28;20420;-71
2024/02/29 03:26:47;;;;;;;82.30;30.00;;;3.10;88.30;;;;;;5045013;28;20204;-72
2024/02/29 03:29:13;;;;;;;74.27;28.63;;;3.10;88.30;;;;;;5014127;28;20531;-73
2024/02/29 03:31:39;;;;;;;97.93;32.73;;;3.00;88.10;;;;;;5023788;28;20463;-74
2024/02/29 03:34:05;;;;;;;78.30;31.13;;;3.00;88.30;;;;;;5029878;28;20420;-75
2024/02/29 03:36:30;;;;;;;77.07;28.10;;;2.90;88.30;;;;;;5033890;28;20254;-74
2024/02/29 03:38:56;;;;;;;71.83;30.07;;;3.00;88.40;;;;;;5031041;28;20450;-73
2024/02/29 03:41:22;;;;;;;80.43;27.37;;;3.00;88.60;;;;;;5034869;28;20212;-74
2024/02/29 03:43:48;;;;;;;80.27;27.03;;;3.00;88.60;;;;;;5032345;28;20423;-74
2024/02/29 03:46:14;;;;;;;65.23;25.10;;;3.10;88.40;;;;;;5034291;28;20204;-73
2024/02/29 03:48:39;;;;;;;64.33;25.33;;;3.20;88.40;;;;;;5034231;28;20216;-75
2024/02/29 03:51:05;;;;;;;74.50;28.53;;;3.20;88.30;;;;;;5031789;28;20290;-73
2024/02/29 03:53:30;;;;;;;69.47;25.93;;;3.10;88.00;;;;;;5035173;28;20208;-71
2024/02/29 03:55:56;;;;;;;81.23;27.63;;;3.10;88.00;;;;;;5042280;28;20181;-74
2024/02/29 03:58:21;;;;;;;65.23;24.97;;;3.10;87.80;;;;;;5040675;28;21062;-72
2024/02/29 04:00:48;;;;;;;84.33;30.20;;;3.10;87.80;;;;;;5030414;28;20293;-73
2024/02/29 04:03:14;;;;;;;70.17;27.60;;;3.10;87.70;;;;;;5034135;28;20690;-70
2024/02/29 04:05:39;;;;;;;80.33;29.10;;;3.00;87.70;;;;;;5038678;28;20470;-74
2024/02/29 04:08:10;;;;;;;76.13;30.27;;;2.90;87.70;;;;;;5037504;28;20427;-73
2024/02/29 04:10:37;;;;;;;73.33;26.87;;;2.80;87.80;;;;;;5037990;28;20224;-73
2024/02/29 04:13:03;;;;;;;79.40;30.17;;;2.80;88.00;;;;;;5033327;28;20416;-73
2024/02/29 04:15:28;;;;;;;81.20;29.70;;;2.80;88.10;;;;;;5034538;28;20786;-73
2024/02/29 04:17:54;;;;;;;79.57;28.30;;;2.70;88.10;;;;;;5035038;28;20562;-70
2024/02/29 04:20:20;;;;;;;77.43;29.67;;;2.70;88.10;;;;;;5033397;28;20599;-71
2024/02/29 04:22:45;;;;;;;78.50;28.50;;;2.70;88.30;;;;;;5030855;28;20212;-74
2024/02/29 04:25:11;;;;;;;85.20;30.00;;;2.70;88.30;;;;;;5034451;28;20192;-73
2024/02/29 04:27:37;;;;;;;79.93;31.70;;;2.70;88.40;;;;;;5034798;28;20256;-73
2024/02/29 04:30:05;;;;;;;76.90;28.17;;;2.70;88.40;;;;;;5033505;28;20300;-73
2024/02/29 04:32:32;;;;;;;80.13;29.60;;;2.70;88.40;;;;;;5031379;28;20467;-74
2024/02/29 04:34:57;;;;;;;85.57;28.07;;;2.70;88.40;;;;;;5035374;28;20470;-75
2024/02/29 04:37:23;;;;;;;72.63;29.07;;;2.70;88.40;;;;;;5035311;28;20455;-72
2024/02/29 04:39:48;;;;;;;79.30;28.93;;;2.70;88.40;;;;;;5035581;28;20508;-72
2024/02/29 04:42:14;;;;;;;73.87;29.37;;;2.70;88.40;;;;;;5033248;28;20220;-71
2024/02/29 04:44:40;;;;;;;74.07;29.53;;;2.60;88.40;;;;;;5036154;28;20192;-73
2024/02/29 04:47:07;;;;;;;70.03;27.10;;;2.60;88.40;;;;;;5034147;28;20200;-73
2024/02/29 04:49:33;;;;;;;79.17;32.10;;;2.50;88.40;;;;;;5033218;28;20323;-73
2024/02/29 04:51:59;;;;;;;84.97;34.17;;;2.50;88.70;;;;;;5023134;28;20468;-74
2024/02/29 04:54:24;;;;;;;87.47;32.50;;;2.50;88.70;;;;;;5033349;28;20519;-74
2024/02/29 04:56:50;;;;;;;81.70;28.43;;;2.40;88.70;;;;;;5033491;28;20189;-74
2024/02/29 04:59:16;;;;;;;89.03;33.07;;;2.50;88.90;;;;;;5033965;28;20181;-74
2024/02/29 05:01:41;;;;;;;83.03;32.87;;;2.50;89.00;;;;;;5023067;28;20213;-73
2024/02/29 05:04:07;;;;;;;87.93;34.30;;;2.40;89.00;;;;;;5026380;28;20427;-75
2024/02/29 05:06:32;;;;;;;95.93;33.90;;;2.40;89.00;;;;;;5033771;28;20274;-73
2024/02/29 05:08:59;;;;;;;71.43;28.67;;;2.40;89.00;;;;;;5035312;28;20260;-74
2024/02/29 05:11:25;;;;;;;89.53;31.83;;;2.30;89.20;;;;;;5030855;28;20201;-72
2024/02/29 05:13:51;;;;;;;79.40;33.47;;;2.30;89.20;;;;;;5031015;28;20425;-73
2024/02/29 05:16:18;;;;;;;89.17;32.20;;;2.30;89.30;;;;;;5033537;28;20921;-73
2024/02/29 05:18:44;;;;;;;88.43;33.90;;;2.30;89.30;;;;;;5016066;28;20185;-73
2024/02/29 05:21:10;;;;;;;100.57;32.30;;;2.30;89.50;;;;;;5026980;28;20647;-74
2024/02/29 05:23:36;;;;;;;89.17;34.10;;;2.30;89.50;;;;;;5032703;28;20173;-72
2024/02/29 05:26:04;;;;;;;85.00;32.17;;;2.30;89.60;;;;;;5034739;28;20452;-74
2024/02/29 05:28:29;;;;;;;96.40;32.67;;;2.30;89.50;;;;;;5034560;28;20428;-74
2024/02/29 05:30:55;;;;;;;76.07;30.07;;;2.30;89.50;;;;;;5030736;28;20451;-72
2024/02/29 05:33:20;;;;;;;91.40;31.40;;;2.30;89.60;;;;;;5024053;28;20240;-73
2024/02/29 05:35:50;;;;;;;90.90;33.07;;;2.20;89.70;;;;;;5029363;28;20243;-72
2024/02/29 05:38:16;;;;;;;86.65;32.85;;;2.20;89.70;;;;;;5032497;28;20185;-73
2024/02/29 05:40:42;;;;;;;80.00;29.80;;;2.20;89.70;;;;;;5029926;28;20213;-74
2024/02/29 05:43:08;;;;;;;85.00;33.40;;;2.20;89.70;;;;;;5029078;28;20697;-73
2024/02/29 05:45:33;;;;;;;86.87;32.67;;;2.20;89.90;;;;;;5025548;28;20204;-72
2024/02/29 05:47:59;;;;;;;91.77;33.70;;;2.30;89.70;;;;;;5031248;28;20204;-73
2024/02/29 05:50:24;;;;;;;88.53;33.40;;;2.30;89.70;;;;;;5029888;28;20267;-72
2024/02/29 05:52:50;;;;;;;82.03;29.17;;;2.30;89.70;;;;;;5025751;28;20564;-73
2024/02/29 05:55:15;;;;;;;81.47;29.27;;;2.30;89.70;;;;;;5032642;28;20184;-73
2024/02/29 05:57:41;;;;;;;71.73;28.03;;;2.40;89.70;;;;;;5030446;28;20202;-73
2024/02/29 06:00:07;;;;;;;80.10;31.20;;;2.40;89.70;;;;;;5032271;28;20335;-72
2024/02/29 06:02:33;;;;;;;73.97;28.67;;;2.50;89.70;;;;;;5029439;28;20197;-73
2024/02/29 06:04:59;;;;;;;74.40;29.00;;;2.50;89.60;;;;;;5027981;28;20420;-71
2024/02/29 06:07:24;;;;;;;85.30;31.20;;;2.60;89.60;;;;;;5032749;28;20180;-71
2024/02/29 06:09:51;;;;;;;81.67;29.97;;;2.50;89.50;;;;;;5033790;28;20213;-72
2024/02/29 06:12:17;;;;;;;86.27;32.20;;;2.50;89.30;;;;;;5019616;28;20262;-70
2024/02/29 06:14:42;;;;;;;80.60;31.00;;;2.40;89.30;;;;;;5030705;28;20960;-73
2024/02/29 06:17:08;;;;;;;77.23;28.20;;;2.40;89.30;;;;;;5034051;28;20208;-73
2024/02/29 06:19:39;;;;;;;78.07;30.53;;;2.50;89.30;;;;;;5034057;28;20428;-74
2024/02/29 06:22:07;;;;;;;82.80;30.97;;;2.50;89.30;;;;;;5025846;28;20197;-72
2024/02/29 06:24:34;;;;;;;73.50;30.90;;;2.60;89.30;;;;;;5035063;28;20416;-71
2024/02/29 06:27:00;;;;;;;75.63;30.87;;;2.50;89.20;;;;;;5036006;28;20412;-71
2024/02/29 06:29:25;;;;;;;71.00;28.53;;;2.60;89.20;;;;;;5036654;28;20836;-74
2024/02/29 06:31:51;;;;;;;94.87;34.53;;;2.60;89.20;;;;;;5026913;28;20505;-74
2024/02/29 06:34:18;;;;;;;81.40;30.67;;;2.60;89.00;;;;;;5028337;28;20903;-74
2024/02/29 06:36:44;;;;;;;68.67;29.07;;;2.60;88.90;;;;;;5027910;28;20193;-73
2024/02/29 06:39:10;;;;;;;83.50;33.37;;;2.70;89.00;;;;;;5031783;28;20420;-72
2024/02/29 06:41:41;;;;;;;81.00;31.80;;;2.80;88.90;;;;;;5023975;28;20459;-74
2024/02/29 06:44:07;;;;;;;82.40;32.07;;;2.80;88.60;;;;;;5031698;28;20424;-73
2024/02/29 06:46:32;;;;;;;80.03;31.40;;;2.80;88.30;;;;;;5034073;28;20431;-73
2024/02/29 06:49:02;;;;;;;96.60;35.47;;;2.70;88.30;;;;;;5031043;28;20472;-72
2024/02/29 06:51:28;;;;;;;82.37;33.53;;;2.80;88.10;;;;;;5026274;28;20204;-74
2024/02/29 06:53:54;;;;;;;71.70;31.03;;;2.80;88.10;;;;;;5027478;28;21007;-72
2024/02/29 06:56:20;;;;;;;82.40;33.70;;;2.80;88.30;;;;;;5036366;28;20411;-73
2024/02/29 06:58:45;;;;;;;72.83;31.07;;;2.80;88.30;;;;;;5034211;28;20482;-70
2024/02/29 07:01:13;;;;;;;75.50;29.33;;;2.80;88.10;;;;;;5026714;28;20210;-73
2024/02/29 07:03:39;;;;;;;71.60;29.73;;;3.00;88.30;;;;;;5026457;28;20231;-73
2024/02/29 07:06:04;;;;;;;77.50;30.13;;;3.00;88.00;;;;;;5030580;28;20940;-73
2024/02/29 07:08:36;;;;;;;72.27;31.10;;;3.10;88.00;;;;;;5030627;28;20585;-74
2024/02/29 07:11:03;;;;;;;66.53;29.00;;;3.10;87.70;;;;;;5021540;28;20202;-72
2024/02/29 07:13:29;;;;;;;73.67;29.37;;;3.20;87.40;;;;;;5030822;28;20905;-74
2024/02/29 07:15:55;;;;;;;81.40;32.00;;;3.10;86.90;;;;;;5030703;28;20812;-72
2024/02/29 07:18:22;;;;;;;72.20;28.57;;;3.00;86.80;;;;;;5031299;28;20423;-74
2024/02/29 07:20:47;;;;;;;70.97;30.27;;;3.00;86.90;;;;;;5027868;28;20468;-73
2024/02/29 07:23:13;;;;;;;72.00;28.33;;;3.10;87.00;;;;;;5021297;28;20947;-74
2024/02/29 07:25:39;;;;;;;70.43;28.43;;;3.20;87.10;;;;;;5029284;28;20236;-76
2024/02/29 07:28:06;;;;;;;63.93;28.33;;;3.20;87.00;;;;;;5031120;28;20416;-75
2024/02/29 07:30:32;;;;;;;73.17;28.13;;;3.30;87.00;;;;;;5028263;28;20213;-74
2024/02/29 07:32:58;;;;;;;79.80;30.07;;;3.30;86.90;;;;;;5023793;28;20416;-74
2024/02/29 07:35:25;;;;;;;75.93;30.83;;;3.30;86.90;;;;;;5024526;28;20295;-74
2024/02/29 07:37:51;;;;;;;81.77;30.70;;;3.30;86.80;;;;;;5029842;28;20841;-74
2024/02/29 07:40:17;;;;;;;84.50;31.77;;;3.40;86.90;;;;;;5029287;28;20481;-73
2024/02/29 07:42:42;;;;;;;71.63;29.30;;;3.50;86.90;;;;;;5014826;28;20264;-73
2024/02/29 07:45:09;;;;;;;68.70;28.27;;;3.50;86.50;;;;;;5032364;28;20196;-73
2024/02/29 07:47:35;;;;;;;73.10;28.70;;;3.60;86.50;;;;;;5034030;28;20196;-73
2024/02/29 07:50:00;;;;;;;76.50;28.07;;;3.60;86.50;;;;;;5031911;28;20480;-74
2024/02/29 07:52:27;;;;;;;68.70;29.23;;;3.70;86.50;;;;;;5021838;28;20449;-72
2024/02/29 07:54:53;;;;;;;75.27;27.60;;;3.80;86.50;;;;;;5028567;28;20197;-73
2024/02/29 07:57:18;;;;;;;76.33;28.50;;;3.90;86.20;;;;;;5029935;28;20526;-73
2024/02/29 07:59:44;;;;;;;66.23;27.00;;;3.80;85.60;;;;;;5030604;28;20224;-73
2024/02/29 08:02:10;;;;;;;80.70;29.20;;;3.80;85.60;;;;;;5023859;28;20240;-73
2024/02/29 08:04:36;;;;;;;70.83;28.77;;;3.90;85.90;;;;;;5026933;28;20711;-74
2024/02/29 08:07:02;;;;;;;63.50;28.20;;;4.00;85.70;;;;;;5030616;28;20193;-75
2024/02/29 08:09:28;;;;;;;69.83;27.83;;;4.00;85.60;;;;;;5031949;28;20483;-73
2024/02/29 08:11:54;;;;;;;66.60;28.37;;;4.00;85.60;;;;;;5028099;28;20463;-74
2024/02/29 08:14:20;;;;;;;66.47;25.73;;;4.10;85.70;;;;;;5031791;28;20427;-74
2024/02/29 08:16:46;;;;;;;68.30;26.07;;;4.20;85.60;;;;;;5037876;28;20452;-74
2024/02/29 08:19:11;;;;;;;65.57;28.03;;;4.30;85.00;;;;;;5018778;28;20280;-73
2024/02/29 08:21:37;;;;;;;68.40;28.37;;;4.30;84.70;;;;;;5031458;28;20228;-72
2024/02/29 08:24:03;;;;;;;66.17;26.80;;;4.30;84.60;;;;;;5028358;28;20185;-72
2024/02/29 08:26:29;;;;;;;72.50;27.83;;;4.30;84.60;;;;;;5038802;28;20284;-74
2024/02/29 08:28:55;;;;;;;69.83;27.80;;;4.40;84.70;;;;;;5042445;28;20502;-73
2024/02/29 08:31:20;;;;;;;69.23;27.90;;;4.60;84.60;;;;;;5027897;28;20629;-71
2024/02/29 08:33:46;;;;;;;64.40;25.70;;;4.60;84.10;;;;;;5025083;28;20796;-74
2024/02/29 08:36:13;;;;;;;64.73;28.57;;;4.60;84.10;;;;;;5032200;28;20220;-73
2024/02/29 08:38:39;;;;;;;64.63;26.27;;;4.80;84.30;;;;;;5035289;28;20510;-72
2024/02/29 08:41:04;;;;;;;63.73;25.03;;;4.80;84.30;;;;;;5029502;28;21090;-74
2024/02/29 08:43:31;;;;;;;59.53;24.73;;;5.10;83.70;;;;;;5024278;28;20444;-74
2024/02/29 08:45:56;;;;;;;59.37;24.17;;;5.20;82.80;;;;;;4999411;28;20507;-74
2024/02/29 08:48:22;;;;;;;63.53;25.60;;;5.20;82.40;;;;;;5034362;28;20559;-72
2024/02/29 08:50:48;;;;;;;67.57;27.77;;;5.20;82.20;;;;;;5024642;28;20225;-74
2024/02/29 08:53:14;;;;;;;59.20;27.00;;;5.20;82.40;;;;;;5027169;28;20453;-73
2024/02/29 08:55:39;;;;;;;54.90;23.47;;;5.20;82.20;;;;;;5035144;28;20459;-76
2024/02/29 08:58:05;;;;;;;59.43;26.70;;;5.40;82.40;;;;;;5032484;28;20189;-73
2024/02/29 09:00:31;;;;;;;67.13;26.63;;;5.50;82.50;;;;;;5033151;28;20208;-73
2024/02/29 09:02:56;;;;;;;62.07;26.10;;;5.60;82.40;;;;;;5029423;28;20189;-73
2024/02/29 09:05:23;;;;;;;59.93;26.77;;;5.70;82.10;;;;;;5038705;28;20194;-73
2024/02/29 09:07:49;;;;;;;46.03;22.90;;;5.80;81.80;;;;;;5035864;28;20209;-74
2024/02/29 09:10:15;;;;;;;57.70;26.03;;;5.90;81.70;;;;;;5034783;28;20554;-74
2024/02/29 09:12:41;;;;;;;53.20;23.57;;;6.10;81.50;;;;;;5026599;28;20523;-75
2024/02/29 09:15:07;;;;;;;55.23;24.20;;;6.20;80.80;;;;;;5027869;28;20435;-74
2024/02/29 09:17:33;;;;;;;60.10;26.03;;;6.30;80.20;;;;;;5033688;28;20995;-74
2024/02/29 09:19:59;;;;;;;55.83;23.20;;;6.50;79.70;;;;;;5020570;28;20441;-74
2024/02/29 09:22:24;;;;;;;67.10;26.27;;;6.60;79.30;;;;;;5025371;28;20483;-74
2024/02/29 09:24:50;;;;;;;65.27;25.80;;;6.80;78.90;;;;;;5033349;28;20193;-73
2024/02/29 09:27:16;;;;;;;58.20;25.17;;;6.70;78.00;;;;;;5031547;28;20268;-74
2024/02/29 09:29:41;;;;;;;52.80;24.80;;;6.60;77.70;;;;;;5032852;28;20363;-74
2024/02/29 09:32:07;;;;;;;56.17;25.30;;;6.70;78.00;;;;;;5023287;28;20216;-74
2024/02/29 09:34:34;;;;;;;52.33;23.57;;;6.80;77.70;;;;;;5027061;28;20177;-73
2024/02/29 09:37:00;;;;;;;61.50;23.40;;;6.90;77.40;;;;;;5031939;28;20919;-77
2024/02/29 09:39:26;;;;;;;52.37;23.57;;;7.10;76.80;;;;;;5033271;28;20794;-74
2024/02/29 09:41:53;;;;;;;54.37;26.00;;;7.20;76.70;;;;;;5028201;28;20537;-73
2024/02/29 09:44:19;;;;;;;57.37;24.27;;;7.30;76.20;;;;;;5029890;28;20260;-73
2024/02/29 09:46:48;;;;;;;51.37;24.53;;;7.40;75.80;;;;;;5035249;28;20420;-73
2024/02/29 09:49:15;;;;;;;49.00;23.40;;;7.30;75.40;;;;;;5037551;28;20494;-72
2024/02/29 09:51:41;;;;;;;58.70;24.27;;;7.20;75.70;;;;;;5035560;28;20460;-72
2024/02/29 09:54:11;;;;;;;49.37;21.67;;;7.20;76.10;;;;;;5032381;28;20420;-73
2024/02/29 09:56:37;;;;;;;49.60;21.90;;;7.30;76.40;;;;;;5041259;28;20420;-73
2024/02/29 09:59:03;;;;;;;50.57;24.37;;;7.60;76.10;;;;;;5039427;28;20991;-74
2024/02/29 10:01:29;;;;;;;55.57;23.47;;;7.80;75.10;;;;;;5003979;28;20224;-73
2024/02/29 10:03:56;;;;;;;47.93;23.80;;;7.90;74.60;;;;;;5022436;28;20420;-71
2024/02/29 10:06:22;;;;;;;53.17;24.93;;;7.90;74.20;;;;;;5032701;28;20917;-74
2024/02/29 10:08:48;;;;;;;48.97;22.87;;;7.80;74.00;;;;;;5035609;28;20467;-74
2024/02/29 10:11:14;;;;;;;51.43;24.20;;;7.80;74.50;;;;;;5013669;28;20282;-75
2024/02/29 10:13:40;;;;;;;53.03;23.00;;;8.00;74.20;;;;;;5027169;28;20923;-74
2024/02/29 10:16:08;;;;;;;56.00;23.33;;;8.00;74.00;;;;;;5034026;28;20181;-75
2024/02/29 10:18:35;;;;;;;50.17;21.63;;;8.10;74.00;;;;;;5036917;28;20455;-74
2024/02/29 10:21:02;;;;;;;51.20;21.80;;;8.40;73.60;;;;;;5028964;28;20460;-75
2024/02/29 10:23:31;;;;;;;58.50;24.17;;;8.40;73.20;;;;;;5027698;28;20502;-75
2024/02/29 10:25:57;;;;;;;51.37;21.83;;;8.50;73.00;;;;;;5030774;28;20448;-75
2024/02/29 10:28:23;;;;;;;57.07;25.20;;;8.60;72.40;;;;;;5031737;28;20478;-77
2024/02/29 10:30:57;;;;;;;47.80;22.10;;;8.70;72.10;;;;;;5026993;28;20796;-73
2024/02/29 10:33:26;;;;;;;53.97;25.03;;;8.70;72.30;;;;;;5030879;28;20185;-76
2024/02/29 10:35:52;;;;;;;52.40;24.53;;;8.60;72.00;;;;;;5031341;28;20420;-75
2024/02/29 10:38:21;;;;;;;56.23;22.53;;;8.60;72.10;;;;;;5030424;28;20784;-74
2024/02/29 10:40:49;;;;;;;54.47;25.07;;;8.80;72.30;;;;;;5027004;28;20216;-74
2024/02/29 10:43:17;;;;;;;46.90;22.97;;;8.90;72.00;;;;;;5026752;28;20431;-72
2024/02/29 10:45:46;;;;;;;49.23;22.80;;;9.00;71.70;;;;;;5029562;28;20459;-72
2024/02/29 10:51:00;;;;;;;52.20;22.37;;;9.40;70.50;;;;;;5003086;28;20520;-73
2024/02/29 10:53:44;;;;;;;50.03;23.97;;;9.70;70.10;;;;;;5012211;28;20440;-75
2024/02/29 10:56:31;;;;;;;46.10;21.73;;;10.00;68.90;;;;;;5010681;28;20479;-74
2024/02/29 10:59:04;;;;;;;48.53;23.00;;;10.60;68.50;;;;;;5007869;28;20479;-75
2024/02/29 11:01:36;;;;;;;48.20;21.90;;;11.00;67.20;;;;;;5005202;28;20503;-74
2024/02/29 11:04:03;;;;;;;44.27;22.30;;;10.80;66.70;;;;;;5010554;28;20437;-73
2024/02/29 11:06:40;;;;;;;41.90;22.03;;;10.90;66.90;;;;;;5012420;28;20448;-73
2024/02/29 11:09:08;;;;;;;43.70;22.40;;;11.10;66.00;;;;;;5011047;28;21006;-74
2024/02/29 11:11:34;;;;;;;46.87;23.47;;;11.20;66.30;;;;;;5011785;28;20635;-73
2024/02/29 11:14:05;;;;;;;48.87;23.30;;;10.90;65.70;;;;;;5011775;28;20416;-74
2024/02/29 11:16:57;;;;;;;48.27;23.80;;;10.90;66.40;;;;;;5008162;28;20227;-73
2024/02/29 11:19:23;;;;;;;50.70;23.33;;;10.90;66.70;;;;;;5006966;28;20516;-74
2024/02/29 11:21:48;;;;;;;45.40;22.80;;;10.70;66.70;;;;;;5008220;28;20885;-72
2024/02/29 11:24:20;;;;;;;41.73;22.40;;;10.90;67.00;;;;;;5013705;28;20201;-74
2024/02/29 11:26:53;;;;;;;42.27;20.40;;;11.30;65.70;;;;;;5006454;28;20190;-74
2024/02/29 11:29:20;;;;;;;43.13;21.30;;;11.20;65.60;;;;;;5009984;28;20476;-75
2024/02/29 11:31:56;;;;;;;41.27;20.67;;;11.70;65.40;;;;;;5007265;28;20465;-74
2024/02/29 11:34:22;;;;;;;40.90;21.20;;;11.90;64.80;;;;;;5009945;28;20478;-74
2024/02/29 11:36:48;;;;;;;41.60;21.53;;;12.20;64.40;;;;;;5010177;28;20508;-74
2024/02/29 11:39:17;;;;;;;42.30;20.20;;;12.50;63.40;;;;;;5010777;28;20190;-75
2024/02/29 11:41:43;;;;;;;44.53;20.33;;;13.10;63.50;;;;;;5007501;28;20488;-74
2024/02/29 11:44:09;;;;;;;37.00;18.20;;;13.50;62.50;;;;;;5010649;28;20420;-72
2024/02/29 11:46:34;;;;;;;36.60;17.60;;;13.90;62.60;;;;;;4998678;28;20239;-71
2024/02/29 11:49:00;;;;;;;33.80;17.87;;;14.40;60.60;;;;;;5009940;28;20739;-72
2024/02/29 11:51:25;;;;;;;34.90;16.73;;;14.60;59.90;;;;;;5007804;28;20220;-72
2024/02/29 11:53:52;;;;;;;31.97;16.97;;;15.00;59.20;;;;;;5011541;28;20185;-72
2024/02/29 11:56:17;;;;;;;30.60;15.40;;;15.50;58.20;;;;;;5010492;28;20185;-72
2024/02/29 11:58:45;;;;;;;27.53;15.57;;;15.60;56.50;;;;;;5011161;28;21016;-71
2024/02/29 12:01:12;;;;;;;33.90;16.70;;;15.50;56.60;;;;;;5013509;28;20209;-70
2024/02/29 12:03:38;;;;;;;30.63;16.37;;;15.30;56.80;;;;;;5023559;28;21217;-71
2024/02/29 12:06:04;;;;;;;31.40;15.30;;;14.80;57.60;;;;;;5016931;28;20463;-71
2024/02/29 12:08:31;;;;;;;25.50;14.10;;;14.30;58.50;;;;;;5013740;28;21022;-71
2024/02/29 12:10:58;;;;;;;33.90;15.90;;;14.20;59.50;;;;;;5011707;28;20482;-71
2024/02/29 12:13:25;;;;;;;31.53;14.80;;;14.40;59.20;;;;;;5013664;28;20440;-71
2024/02/29 12:15:52;;;;;;;32.07;16.63;;;14.70;58.40;;;;;;5014061;28;20452;-71
2024/02/29 12:18:19;;;;;;;28.77;14.83;;;15.10;58.00;;;;;;5015206;28;20514;-70
2024/02/29 12:20:45;;;;;;;32.43;15.60;;;15.30;57.30;;;;;;5011546;28;20469;-72
2024/02/29 12:23:18;;;;;;;28.30;15.00;;;15.60;56.50;;;;;;5013343;28;20432;-70
2024/02/29 12:25:45;;;;;;;25.43;13.57;;;15.20;56.20;;;;;;5013668;28;20412;-72
2024/02/29 12:28:12;;;;;;;30.30;15.43;;;15.20;56.50;;;;;;5013658;28;20419;-72
2024/02/29 12:30:38;;;;;;;22.37;12.47;;;15.20;56.40;;;;;;5011133;28;20571;-71
2024/02/29 12:33:05;;;;;;;21.13;11.20;;;15.30;56.60;;;;;;5012928;28;20423;-71
2024/02/29 12:35:31;;;;;;;22.70;11.60;;;15.40;55.20;;;;;;5012657;28;20431;-72